createdAt,value
2017-12-02T00:00:25.165Z,11.98
2017-12-02T00:02:51.782Z,9.98
2017-12-02T00:05:18.441Z,10.55
2017-12-02T00:07:45.079Z,11.70
2017-12-02T00:10:11.745Z,9.73
2017-12-02T00:12:38.352Z,9.02
2017-12-02T00:15:04.991Z,10.95
2017-12-02T00:17:31.634Z,10.63
2017-12-02T00:19:58.263Z,9.70
2017-12-02T00:22:24.904Z,13.23
2017-12-02T00:24:51.519Z,10.63
2017-12-02T00:27:18.180Z,10.50
2017-12-02T00:29:44.821Z,10.20
2017-12-02T00:32:11.429Z,12.07
2017-12-02T00:34:38.072Z,11.00
2017-12-02T00:37:04.694Z,10.13
2017-12-02T00:39:31.312Z,10.15
2017-12-02T00:41:58.020Z,11.70
2017-12-02T00:44:24.633Z,10.27
2017-12-02T00:46:51.249Z,10.38
2017-12-02T00:49:17.890Z,10.48
2017-12-02T00:51:44.515Z,9.25
2017-12-02T00:54:11.140Z,12.30
2017-12-02T00:56:37.779Z,11.95
2017-12-02T00:59:04.390Z,9.60
2017-12-02T01:01:31.006Z,13.52
2017-12-02T01:03:57.629Z,12.10
2017-12-02T01:06:24.253Z,10.85
2017-12-02T01:08:50.872Z,13.90
2017-12-02T01:11:17.515Z,10.88
2017-12-02T01:13:44.116Z,9.35
2017-12-02T01:16:10.731Z,12.05
2017-12-02T01:18:37.430Z,12.00
2017-12-02T01:21:04.030Z,9.32
2017-12-02T01:23:30.646Z,12.15
2017-12-02T01:25:57.278Z,12.93
2017-12-02T01:28:23.883Z,10.98
2017-12-02T01:30:50.535Z,10.98
2017-12-02T01:33:17.150Z,11.30
2017-12-02T01:35:43.806Z,12.02
2017-12-02T01:38:10.409Z,11.25
2017-12-02T01:40:37.032Z,12.13
2017-12-02T01:43:03.681Z,10.35
2017-12-02T01:45:30.318Z,10.82
2017-12-02T01:47:56.938Z,10.00
2017-12-02T01:50:23.555Z,12.37
2017-12-02T01:52:50.276Z,10.15
2017-12-02T01:55:16.899Z,10.02
2017-12-02T01:57:43.526Z,11.50
2017-12-02T02:00:10.166Z,10.60
2017-12-02T02:02:36.794Z,9.95
2017-12-02T02:05:03.473Z,11.15
2017-12-02T02:07:30.094Z,10.35
2017-12-02T02:09:56.705Z,12.30
2017-12-02T02:12:23.448Z,11.80
2017-12-02T02:14:50.077Z,10.52
2017-12-02T02:17:16.698Z,10.18
2017-12-02T02:19:43.332Z,10.35
2017-12-02T02:22:09.951Z,10.52
2017-12-02T02:24:36.569Z,11.50
2017-12-02T02:27:03.202Z,10.75
2017-12-02T02:29:29.830Z,10.40
2017-12-02T02:31:56.478Z,13.23
2017-12-02T02:34:23.114Z,11.25
2017-12-02T02:36:49.749Z,11.82
2017-12-02T02:39:16.390Z,13.32
2017-12-02T02:41:43.066Z,12.57
2017-12-02T02:44:09.674Z,8.20
2017-12-02T02:46:36.298Z,10.77
2017-12-02T02:49:02.940Z,11.35
2017-12-02T02:51:29.577Z,10.05
2017-12-02T02:53:56.209Z,13.02
2017-12-02T02:56:22.847Z,12.10
2017-12-02T02:58:49.486Z,11.25
2017-12-02T03:01:16.125Z,10.90
2017-12-02T03:03:42.741Z,10.65
2017-12-02T03:06:09.394Z,11.25
2017-12-02T03:08:36.035Z,11.43
2017-12-02T03:11:02.670Z,11.55
2017-12-02T03:13:29.309Z,9.13
2017-12-02T03:15:55.952Z,11.60
2017-12-02T03:18:22.582Z,10.13
2017-12-02T03:20:49.238Z,14.43
2017-12-02T03:23:15.986Z,10.68
2017-12-02T03:25:42.607Z,11.18
2017-12-02T03:28:09.258Z,11.65
2017-12-02T03:30:35.898Z,11.15
2017-12-02T03:33:02.517Z,10.65
2017-12-02T03:35:29.154Z,10.02
2017-12-02T03:37:55.798Z,12.63
2017-12-02T03:40:22.430Z,11.10
2017-12-02T03:42:49.068Z,11.40
2017-12-02T03:45:15.706Z,12.35
2017-12-02T03:47:42.343Z,10.90
2017-12-02T03:50:08.978Z,10.60
2017-12-02T03:52:35.614Z,11.98
2017-12-02T03:55:02.249Z,10.73
2017-12-02T03:57:28.890Z,10.80
2017-12-02T03:59:55.525Z,15.05
2017-12-02T04:02:22.266Z,12.48
2017-12-02T04:04:48.906Z,10.82
2017-12-02T04:07:15.542Z,11.27
2017-12-02T04:09:42.181Z,10.30
2017-12-02T04:12:08.829Z,12.85
2017-12-02T04:14:35.545Z,13.13
2017-12-02T04:17:02.166Z,11.75
2017-12-02T04:19:28.851Z,11.93
2017-12-02T04:21:55.470Z,10.93
2017-12-02T04:24:22.104Z,10.25
2017-12-02T04:26:48.843Z,11.30
2017-12-02T04:29:15.482Z,12.25
2017-12-02T04:31:42.120Z,11.52
2017-12-02T04:34:08.763Z,11.38
2017-12-02T04:36:35.386Z,11.77
2017-12-02T04:39:02.105Z,13.95
2017-12-02T04:41:28.738Z,10.68
2017-12-02T04:43:55.369Z,12.77
2017-12-02T04:46:21.985Z,12.10
2017-12-02T04:48:48.613Z,13.50
2017-12-02T04:51:15.239Z,11.70
2017-12-02T04:53:41.867Z,11.18
2017-12-02T04:56:08.485Z,11.00
2017-12-02T04:58:35.109Z,14.07
2017-12-02T05:01:01.746Z,12.45
2017-12-02T05:03:28.386Z,11.57
2017-12-02T05:05:55.010Z,10.57
2017-12-02T05:08:21.698Z,11.23
2017-12-02T05:10:48.291Z,13.30
2017-12-02T05:13:14.953Z,12.40
2017-12-02T05:15:41.593Z,11.12
2017-12-02T05:18:08.221Z,11.63
2017-12-02T05:20:34.836Z,11.50
2017-12-02T05:23:01.514Z,11.38
2017-12-02T05:25:28.133Z,12.85
2017-12-02T05:27:55.032Z,10.48
2017-12-02T05:30:21.864Z,13.10
2017-12-02T05:32:49.844Z,12.50
2017-12-02T05:35:16.891Z,13.25
2017-12-02T05:37:43.635Z,12.77
2017-12-02T05:40:10.816Z,13.52
2017-12-02T05:42:37.673Z,11.63
2017-12-02T05:45:04.435Z,12.25
2017-12-02T05:47:31.589Z,11.90
2017-12-02T05:49:58.218Z,9.75
2017-12-02T05:52:24.900Z,11.98
2017-12-02T05:54:51.647Z,13.43
2017-12-02T05:57:18.381Z,13.98
2017-12-02T05:59:45.034Z,11.18
2017-12-02T06:02:11.656Z,13.32
2017-12-02T06:04:38.292Z,11.52
2017-12-02T06:07:04.978Z,11.27
2017-12-02T06:09:31.609Z,14.77
2017-12-02T06:11:58.258Z,14.25
2017-12-02T06:14:24.902Z,12.98
2017-12-02T06:16:51.522Z,11.20
2017-12-02T06:19:18.224Z,10.75
2017-12-02T06:21:45.486Z,11.18
2017-12-02T06:24:12.331Z,12.90
2017-12-02T06:26:38.982Z,13.05
2017-12-02T06:29:05.589Z,12.60
2017-12-02T06:31:32.249Z,9.73
2017-12-02T06:33:58.902Z,12.10
2017-12-02T06:36:25.524Z,12.25
2017-12-02T06:38:52.173Z,13.02
2017-12-02T06:41:19.012Z,11.68
2017-12-02T06:43:45.628Z,12.48
2017-12-02T06:46:12.245Z,11.18
2017-12-02T06:48:39.641Z,12.13
2017-12-02T06:51:06.292Z,10.10
2017-12-02T06:53:32.922Z,12.70
2017-12-02T06:55:59.542Z,11.02
2017-12-02T06:58:26.508Z,12.00
2017-12-02T07:00:53.207Z,10.70
2017-12-02T07:03:19.815Z,8.25
2017-12-02T07:05:46.429Z,11.10
2017-12-02T07:08:13.087Z,10.80
2017-12-02T07:10:39.725Z,13.13
2017-12-02T07:13:06.362Z,13.40
2017-12-02T07:15:33.585Z,12.68
2017-12-02T07:18:00.210Z,13.30
2017-12-02T07:20:27.589Z,12.18
2017-12-02T07:22:58.236Z,14.07
2017-12-02T07:25:24.913Z,16.77
2017-12-02T07:27:51.534Z,13.62
2017-12-02T07:30:18.235Z,13.40
2017-12-02T07:32:45.712Z,12.48
2017-12-02T07:35:12.386Z,13.77
2017-12-02T07:37:39.010Z,11.90
2017-12-02T07:40:05.623Z,11.30
2017-12-02T07:42:32.240Z,12.75
2017-12-02T07:44:58.877Z,11.35
2017-12-02T07:47:25.522Z,10.07
2017-12-02T07:49:52.146Z,12.18
2017-12-02T07:52:18.786Z,10.60
2017-12-02T07:54:45.413Z,13.50
2017-12-02T07:57:12.030Z,11.23
2017-12-02T07:59:38.687Z,12.27
2017-12-02T08:02:05.302Z,11.90
2017-12-02T08:04:31.922Z,12.48
2017-12-02T08:06:58.549Z,10.48
2017-12-02T08:09:25.173Z,13.20
2017-12-02T08:11:51.822Z,10.82
2017-12-02T08:14:18.449Z,10.07
2017-12-02T08:16:45.066Z,12.35
2017-12-02T08:19:11.707Z,11.80
2017-12-02T08:21:38.357Z,9.52
2017-12-02T08:24:04.970Z,11.30
2017-12-02T08:26:31.611Z,10.75
2017-12-02T08:28:58.237Z,10.02
2017-12-02T08:31:24.850Z,13.57
2017-12-02T08:33:51.474Z,11.90
2017-12-02T08:36:18.098Z,13.55
2017-12-02T08:38:44.733Z,15.20
2017-12-02T08:41:11.388Z,11.02
2017-12-02T08:43:38.009Z,11.85
2017-12-02T08:46:04.646Z,10.48
2017-12-02T08:48:31.375Z,11.77
2017-12-02T08:50:58.114Z,10.70
2017-12-02T08:53:24.764Z,9.50
2017-12-02T08:55:51.379Z,9.65
2017-12-02T08:58:18.033Z,10.40
2017-12-02T09:00:44.674Z,10.13
2017-12-02T09:03:11.314Z,11.10
2017-12-02T09:05:37.963Z,9.20
2017-12-02T09:08:04.591Z,9.23
2017-12-02T09:10:31.219Z,13.60
2017-12-02T09:12:57.845Z,10.20
2017-12-02T09:15:24.458Z,10.30
2017-12-02T09:17:51.137Z,9.63
2017-12-02T09:20:17.765Z,11.00
2017-12-02T09:22:44.378Z,10.18
2017-12-02T09:25:11.014Z,10.23
2017-12-02T09:27:37.641Z,11.43
2017-12-02T09:30:04.274Z,12.25
2017-12-02T09:32:30.915Z,9.55
2017-12-02T09:34:57.530Z,9.23
2017-12-02T09:37:24.149Z,8.85
2017-12-02T09:39:50.778Z,11.20
2017-12-02T09:42:17.412Z,8.80
2017-12-02T09:44:44.028Z,11.63
2017-12-02T09:47:10.638Z,9.63
2017-12-02T09:49:37.258Z,8.52
2017-12-02T09:52:03.858Z,9.25
2017-12-02T09:54:30.496Z,9.70
2017-12-02T09:56:57.199Z,10.25
2017-12-02T09:59:23.793Z,9.30
2017-12-02T10:01:50.415Z,10.07
2017-12-02T10:04:17.050Z,10.30
2017-12-02T10:06:43.760Z,9.15
2017-12-02T10:09:10.360Z,8.55
2017-12-02T10:11:36.980Z,9.10
2017-12-02T10:14:03.597Z,8.13
2017-12-02T10:16:30.219Z,9.65
2017-12-02T10:18:56.911Z,8.50
2017-12-02T10:21:23.518Z,9.35
2017-12-02T10:23:50.142Z,9.52
2017-12-02T10:26:16.766Z,9.27
2017-12-02T10:28:43.386Z,9.57
2017-12-02T10:31:10.023Z,8.93
2017-12-02T10:33:36.639Z,10.05
2017-12-02T10:36:03.272Z,8.15
2017-12-02T10:38:29.911Z,8.27
2017-12-02T10:40:56.518Z,8.10
2017-12-02T10:43:23.144Z,7.50
2017-12-02T10:45:49.842Z,7.93
2017-12-02T10:48:16.461Z,10.20
2017-12-02T10:50:43.074Z,8.77
2017-12-02T10:53:09.702Z,8.90
2017-12-02T10:55:36.330Z,8.40
2017-12-02T10:58:02.951Z,8.23
2017-12-02T11:00:29.583Z,6.18
2017-12-02T11:02:56.190Z,8.63
2017-12-02T11:05:22.852Z,9.10
2017-12-02T11:07:49.461Z,8.18
2017-12-02T11:10:16.933Z,9.65
2017-12-02T11:12:43.588Z,7.82
2017-12-02T11:15:10.188Z,7.35
2017-12-02T11:17:36.810Z,8.23
2017-12-02T11:20:03.541Z,7.25
2017-12-02T11:22:30.158Z,7.45
2017-12-02T11:24:56.762Z,7.55
2017-12-02T11:27:23.385Z,7.60
2017-12-02T11:29:49.990Z,8.25
2017-12-02T11:32:16.617Z,8.57
2017-12-02T11:34:43.226Z,8.80
2017-12-02T11:37:09.831Z,6.85
2017-12-02T11:39:36.456Z,5.70
2017-12-02T11:42:03.088Z,7.65
2017-12-02T11:44:29.686Z,7.07
2017-12-02T11:46:56.330Z,7.37
2017-12-02T11:49:22.940Z,7.28
2017-12-02T11:51:49.558Z,7.05
2017-12-02T11:54:16.165Z,6.62
2017-12-02T11:56:42.777Z,6.55
2017-12-02T11:59:09.400Z,6.22
2017-12-02T12:01:36.005Z,6.85
2017-12-02T12:04:02.622Z,7.50
2017-12-02T12:06:29.249Z,8.68
2017-12-02T12:08:55.921Z,6.82
2017-12-02T12:11:22.563Z,6.10
2017-12-02T12:13:49.196Z,6.25
2017-12-02T12:16:15.897Z,7.20
2017-12-02T12:18:42.514Z,7.30
2017-12-02T12:21:09.169Z,5.57
2017-12-02T12:23:35.817Z,6.95
2017-12-02T12:26:02.489Z,5.95
2017-12-02T12:28:29.102Z,6.57
2017-12-02T12:30:55.715Z,5.53
2017-12-02T12:33:22.339Z,5.03
2017-12-02T12:35:49.010Z,5.75
2017-12-02T12:38:15.625Z,4.30
2017-12-02T12:40:42.291Z,5.25
2017-12-02T12:43:08.906Z,5.35
2017-12-02T12:45:35.541Z,4.85
2017-12-02T12:48:02.142Z,5.47
2017-12-02T12:50:28.750Z,5.10
2017-12-02T12:52:55.373Z,5.60
2017-12-02T12:55:21.982Z,7.53
2017-12-02T12:57:48.594Z,5.85
2017-12-02T13:00:15.226Z,6.37
2017-12-02T13:02:41.833Z,7.30
2017-12-02T13:05:08.446Z,6.55
2017-12-02T13:07:35.078Z,6.37
2017-12-02T13:10:01.693Z,7.37
2017-12-02T13:12:28.295Z,7.87
2017-12-02T13:14:54.910Z,8.10
2017-12-02T13:17:21.526Z,9.38
2017-12-02T13:19:48.163Z,6.93
2017-12-02T13:22:14.842Z,5.18
2017-12-02T13:24:41.457Z,6.37
2017-12-02T13:27:08.158Z,5.60
2017-12-02T13:29:34.770Z,6.35
2017-12-02T13:32:01.381Z,5.93
2017-12-02T13:34:28.002Z,7.20
2017-12-02T13:36:54.833Z,7.10
2017-12-02T13:39:21.477Z,6.05
2017-12-02T13:41:48.108Z,6.25
2017-12-02T13:44:14.939Z,6.03
2017-12-02T13:46:41.605Z,7.75
2017-12-02T13:49:08.238Z,7.60
2017-12-02T13:51:35.738Z,7.95
2017-12-02T13:54:03.134Z,7.12
2017-12-02T13:56:29.978Z,7.60
2017-12-02T13:58:56.638Z,7.10
2017-12-02T14:01:23.266Z,8.27
2017-12-02T14:03:49.902Z,7.72
2017-12-02T14:06:16.541Z,8.02
2017-12-02T14:08:43.480Z,6.45
2017-12-02T14:11:10.295Z,7.30
2017-12-02T14:13:37.374Z,8.38
2017-12-02T14:16:05.445Z,6.85
2017-12-02T14:18:32.128Z,7.28
2017-12-02T14:20:58.802Z,7.37
2017-12-02T14:23:25.438Z,5.78
2017-12-02T14:25:52.062Z,6.18
2017-12-02T14:28:18.661Z,8.00
2017-12-02T14:30:45.295Z,6.97
2017-12-02T14:33:11.893Z,7.47
2017-12-02T14:35:38.626Z,7.40
2017-12-02T14:38:05.236Z,6.60
2017-12-02T14:40:31.837Z,7.72
2017-12-02T14:42:58.468Z,7.05
2017-12-02T14:45:25.097Z,7.22
2017-12-02T14:47:51.714Z,6.95
2017-12-02T14:50:18.355Z,6.75
2017-12-02T14:52:44.975Z,6.45
2017-12-02T14:55:11.592Z,7.85
2017-12-02T14:57:38.202Z,7.55
2017-12-02T15:00:04.838Z,7.15
2017-12-02T15:02:31.462Z,7.45
2017-12-02T15:04:58.098Z,7.40
2017-12-02T15:07:24.733Z,8.20
2017-12-02T15:09:51.369Z,7.57
2017-12-02T15:12:18.010Z,7.03
2017-12-02T15:14:44.646Z,7.80
2017-12-02T15:17:11.289Z,8.13
2017-12-02T15:19:37.972Z,8.27
2017-12-02T15:22:04.574Z,7.80
2017-12-02T15:24:31.206Z,6.75
2017-12-02T15:26:57.843Z,8.60
2017-12-02T15:29:24.461Z,7.70
2017-12-02T15:31:51.085Z,9.02
2017-12-02T15:34:17.710Z,10.18
2017-12-02T15:36:44.328Z,7.78
2017-12-02T15:39:10.941Z,7.03
2017-12-02T15:41:37.566Z,7.50
2017-12-02T15:44:04.174Z,7.68
2017-12-02T15:46:30.886Z,7.57
2017-12-02T15:48:57.516Z,6.70
2017-12-02T15:51:24.150Z,9.45
2017-12-02T15:53:50.787Z,8.63
2017-12-02T15:56:17.385Z,8.20
2017-12-02T15:58:44.080Z,8.55
2017-12-02T16:01:10.716Z,8.10
2017-12-02T16:03:37.326Z,8.10
2017-12-02T16:06:03.921Z,8.00
2017-12-02T16:08:30.578Z,10.20
2017-12-02T16:10:57.195Z,9.00
2017-12-02T16:13:23.874Z,8.30
2017-12-02T16:15:50.614Z,9.40
2017-12-02T16:18:17.218Z,8.13
2017-12-02T16:20:43.854Z,9.13
2017-12-02T16:23:10.535Z,8.85
2017-12-02T16:25:37.142Z,7.93
2017-12-02T16:28:03.779Z,9.10
2017-12-02T16:30:30.397Z,8.00
2017-12-02T16:32:57.002Z,9.25
2017-12-02T16:35:23.633Z,7.35
2017-12-02T16:37:50.234Z,9.50
2017-12-02T16:40:16.863Z,7.00
2017-12-02T16:42:43.491Z,8.10
2017-12-02T16:45:10.184Z,8.45
2017-12-02T16:47:36.781Z,8.40
2017-12-02T16:50:03.463Z,9.85
2017-12-02T16:52:30.055Z,9.60
2017-12-02T16:54:56.732Z,8.55
2017-12-02T16:57:23.374Z,10.07
2017-12-02T16:59:49.990Z,9.82
2017-12-02T17:02:16.665Z,8.95
2017-12-02T17:04:43.287Z,9.25
2017-12-02T17:07:09.903Z,7.35
2017-12-02T17:09:36.518Z,10.60
2017-12-02T17:12:03.133Z,7.75
2017-12-02T17:14:29.745Z,8.07
2017-12-02T17:16:56.351Z,8.52
2017-12-02T17:19:23.044Z,9.10
2017-12-02T17:21:49.649Z,8.38
2017-12-02T17:24:16.245Z,8.85
2017-12-02T17:26:42.933Z,9.32
2017-12-02T17:29:09.503Z,9.15
2017-12-02T17:31:36.125Z,8.40
2017-12-02T17:34:02.754Z,8.13
2017-12-02T17:36:29.369Z,8.65
2017-12-02T17:38:56.080Z,8.13
2017-12-02T17:41:22.698Z,7.95
2017-12-02T17:43:49.306Z,9.30
2017-12-02T17:46:15.920Z,8.20
2017-12-02T17:48:42.538Z,8.85
2017-12-02T17:51:09.142Z,8.65
2017-12-02T17:53:35.779Z,7.68
2017-12-02T17:56:02.406Z,8.20
2017-12-02T17:58:29.027Z,7.50
2017-12-02T18:00:55.691Z,7.32
2017-12-02T18:03:22.317Z,8.65
2017-12-02T18:05:48.930Z,7.37
2017-12-02T18:08:15.606Z,10.18
2017-12-02T18:10:42.232Z,6.90
2017-12-02T18:13:08.857Z,8.18
2017-12-02T18:15:35.518Z,7.62
2017-12-02T18:18:02.140Z,8.02
2017-12-02T18:20:28.738Z,9.32
2017-12-02T18:22:55.429Z,8.13
2017-12-02T18:25:22.045Z,8.98
2017-12-02T18:27:48.685Z,8.18
2017-12-02T18:30:15.282Z,8.68
2017-12-02T18:32:41.902Z,7.78
2017-12-02T18:35:08.523Z,7.50
2017-12-02T18:37:35.135Z,9.80
2017-12-02T18:40:01.750Z,9.32
2017-12-02T18:42:28.389Z,8.93
2017-12-02T18:44:54.986Z,9.65
2017-12-02T18:47:21.606Z,7.10
2017-12-02T18:49:48.261Z,8.50
2017-12-02T18:52:14.900Z,7.07
2017-12-02T18:54:41.511Z,8.60
2017-12-02T18:57:08.146Z,7.93
2017-12-02T18:59:34.751Z,9.30
2017-12-02T19:02:01.362Z,8.82
2017-12-02T19:04:27.993Z,8.30
2017-12-02T19:06:54.606Z,9.25
2017-12-02T19:09:21.222Z,8.45
2017-12-02T19:11:47.867Z,9.93
2017-12-02T19:14:14.478Z,7.75
2017-12-02T19:16:41.090Z,7.65
2017-12-02T19:19:07.765Z,8.10
2017-12-02T19:21:34.362Z,7.35
2017-12-02T19:24:00.976Z,9.15
2017-12-02T19:26:27.595Z,8.48
2017-12-02T19:28:54.210Z,7.82
2017-12-02T19:31:20.840Z,9.55
2017-12-02T19:33:47.457Z,10.15
2017-12-02T19:36:14.065Z,8.10
2017-12-02T19:38:40.682Z,7.80
2017-12-02T19:41:07.286Z,7.40
2017-12-02T19:43:33.899Z,9.27
2017-12-02T19:46:00.534Z,10.20
2017-12-02T19:48:27.150Z,8.55
2017-12-02T19:50:53.837Z,7.35
2017-12-02T19:53:20.453Z,8.82
2017-12-02T19:55:47.064Z,8.18
2017-12-02T19:58:13.670Z,7.70
2017-12-02T20:00:41.155Z,9.05
2017-12-02T20:03:07.768Z,8.60
2017-12-02T20:05:34.380Z,8.98
2017-12-02T20:08:01.015Z,7.45
2017-12-02T20:10:27.617Z,9.45
2017-12-02T20:12:54.241Z,8.93
2017-12-02T20:15:20.876Z,12.80
2017-12-02T20:17:47.495Z,9.88
2017-12-02T20:20:14.106Z,9.45
2017-12-02T20:22:40.740Z,9.30
2017-12-02T20:25:07.357Z,7.10
2017-12-02T20:27:33.964Z,7.25
2017-12-02T20:30:00.586Z,10.10
2017-12-02T20:32:27.207Z,7.50
2017-12-02T20:34:53.885Z,8.75
2017-12-02T20:37:20.512Z,11.00
2017-12-02T20:39:47.126Z,9.02
2017-12-02T20:42:13.746Z,8.65
2017-12-02T20:44:40.368Z,7.80
2017-12-02T20:47:06.983Z,9.00
2017-12-02T20:49:33.616Z,8.13
2017-12-02T20:52:00.240Z,8.15
2017-12-02T20:54:26.855Z,8.88
2017-12-02T20:56:53.486Z,8.35
2017-12-02T20:59:20.085Z,7.70
2017-12-02T21:01:46.777Z,8.52
2017-12-02T21:04:13.421Z,8.73
2017-12-02T21:06:40.016Z,8.60
2017-12-02T21:09:06.637Z,8.95
2017-12-02T21:11:33.293Z,6.82
2017-12-02T21:13:59.910Z,8.95
2017-12-02T21:16:26.541Z,9.25
2017-12-02T21:18:53.166Z,9.35
2017-12-02T21:21:19.777Z,8.05
2017-12-02T21:23:46.422Z,8.98
2017-12-02T21:26:13.041Z,7.03
2017-12-02T21:28:39.654Z,8.50
2017-12-02T21:31:06.261Z,8.88
2017-12-02T21:33:32.888Z,8.25
2017-12-02T21:35:59.506Z,7.93
2017-12-02T21:38:26.111Z,7.68
2017-12-02T21:40:52.963Z,8.40
2017-12-02T21:43:19.584Z,9.35
2017-12-02T21:45:46.191Z,9.05
2017-12-02T21:48:12.821Z,8.68
2017-12-02T21:50:39.452Z,7.25
2017-12-02T21:53:06.090Z,8.55
2017-12-02T21:55:32.704Z,7.12
2017-12-02T21:57:59.304Z,7.10
2017-12-02T22:00:25.934Z,8.07
2017-12-02T22:02:52.546Z,8.27
2017-12-02T22:05:19.187Z,7.50
2017-12-02T22:07:45.822Z,8.68
2017-12-02T22:10:12.442Z,7.18
2017-12-02T22:12:39.064Z,7.72
2017-12-02T22:15:05.733Z,8.00
2017-12-02T22:17:32.362Z,9.00
2017-12-02T22:19:58.985Z,10.35
2017-12-02T22:22:25.612Z,7.15
2017-12-02T22:24:52.290Z,7.37
2017-12-02T22:27:18.914Z,9.82
2017-12-02T22:29:45.553Z,7.90
2017-12-02T22:32:12.214Z,9.32
2017-12-02T22:34:38.825Z,7.03
2017-12-02T22:37:05.458Z,7.40
2017-12-02T22:39:32.071Z,8.63
2017-12-02T22:41:58.684Z,8.35
2017-12-02T22:44:25.349Z,7.10
2017-12-02T22:46:51.987Z,7.70
2017-12-02T22:49:18.687Z,8.80
2017-12-02T22:51:45.309Z,8.00
2017-12-02T22:54:11.935Z,8.00
2017-12-02T22:56:38.574Z,8.40
2017-12-02T22:59:05.181Z,8.75
2017-12-02T23:01:31.790Z,8.32
2017-12-02T23:03:58.410Z,7.85
2017-12-02T23:06:25.029Z,10.43
2017-12-02T23:08:51.685Z,7.93
2017-12-02T23:11:18.317Z,9.52
2017-12-02T23:13:44.939Z,9.60
2017-12-02T23:16:11.555Z,11.27
2017-12-02T23:18:38.185Z,9.73
2017-12-02T23:21:04.889Z,9.50
2017-12-02T23:23:31.514Z,10.40
2017-12-02T23:25:58.126Z,9.18
2017-12-02T23:28:24.736Z,8.45
2017-12-02T23:30:51.357Z,7.20
2017-12-02T23:33:17.962Z,9.23
2017-12-02T23:35:44.575Z,8.20
2017-12-02T23:38:11.256Z,7.80
2017-12-02T23:40:37.870Z,8.73
2017-12-02T23:43:04.486Z,7.47
2017-12-02T23:45:31.205Z,8.15
2017-12-02T23:47:57.818Z,8.23
2017-12-02T23:50:24.426Z,7.12
2017-12-02T23:52:51.054Z,7.65
2017-12-02T23:55:17.662Z,8.05
2017-12-02T23:57:44.283Z,8.20
